KCOF/COF METAR and TAF weather

Enter ICAO airport designator
Station Type Date Time Source
KCOF METAR 2021/03/04 20:56 UTC NOAA

KCOF 042056Z AUTO 04015KT 10SM FEW060 19/11 A2995 RMK AO2 SLP147 T01920110 55018 $


Station Type Date Time Source
KCOF Decoded METAR 2021/03/04 20:56 UTC NOAA

Cocoa / Patrick Air Force Base, FL, United States (KCOF) 28-14N 080-36W 3M
Mar 04, 2021 - 03:56 PM EST / 2021.03.04 2056 UTC
Wind: from the NE (040 degrees) at 17 MPH (15 KT):0
Visibility: 10 mile(s):0
Sky conditions: mostly clear
Temperature: 66.6 F (19.2 C)
Dew Point: 51.8 F (11.0 C)
Relative Humidity: 58%
Pressure (altimeter): 29.95 in. Hg (1014 hPa)
Pressure tendency: 0.05 inches (1.8 hPa) lower than three hours ago
ob: KCOF 042056Z AUTO 04015KT 10SM FEW060 19/11 A2995 RMK AO2 SLP147 T01920110 55018
cycle: 21

Station Type Date Time Source
KCOF TAF 2021/03/04 19:09 UTC NOAA

TAF KCOF 041900Z 0419/0601 02010G15KT 9999 SCT050 QNH2994INS
BECMG 0423/0424 01009KT 9999 FEW040 QNH2997INS
BECMG 0514/0515 06010G15KT 9999 BKN050 QNH3001INS
BECMG 0519/0520 08010KT 9000 -SHRA BKN020 QNH2998INS TX23/0518Z TN13/0510Z

Example: see airport list